sensor_id;sensor_type;location;lat;lon;timestamp;pressure;altitude;pressure_sealevel;temperature;humidity
17525;BME280;40431;52.198;9.902;2022-11-15T00:01:38;100290.00;;;7.21;100.00
17525;BME280;40431;52.198;9.902;2022-11-15T00:04:06;100299.16;;;7.18;100.00
17525;BME280;40431;52.198;9.902;2022-11-15T00:06:34;100291.06;;;7.18;100.00
17525;BME280;40431;52.198;9.902;2022-11-15T00:09:03;100291.19;;;7.15;100.00
17525;BME280;40431;52.198;9.902;2022-11-15T00:11:35;100294.69;;;7.17;100.00
17525;BME280;40431;52.198;9.902;2022-11-15T00:14:06;100300.16;;;7.15;100.00
17525;BME280;40431;52.198;9.902;2022-11-15T00:16:34;100288.56;;;7.13;100.00
17525;BME280;40431;52.198;9.902;2022-11-15T00:19:03;100288.34;;;7.18;100.00
17525;BME280;40431;52.198;9.902;2022-11-15T00:21:31;100293.50;;;7.23;100.00
17525;BME280;40431;52.198;9.902;2022-11-15T00:24:00;100291.34;;;7.29;100.00
17525;BME280;40431;52.198;9.902;2022-11-15T00:26:30;100285.03;;;7.30;100.00
17525;BME280;40431;52.198;9.902;2022-11-15T00:28:59;100280.19;;;7.37;100.00
17525;BME280;40431;52.198;9.902;2022-11-15T00:31:32;100272.09;;;7.37;100.00
17525;BME280;40431;52.198;9.902;2022-11-15T00:34:01;100277.94;;;7.45;100.00
17525;BME280;40431;52.198;9.902;2022-11-15T00:36:33;100277.78;;;7.48;100.00
17525;BME280;40431;52.198;9.902;2022-11-15T00:39:04;100284.44;;;7.59;100.00
17525;BME280;40431;52.198;9.902;2022-11-15T00:41:33;100280.28;;;7.69;100.00
17525;BME280;40431;52.198;9.902;2022-11-15T00:44:01;100282.59;;;7.77;100.00
17525;BME280;40431;52.198;9.902;2022-11-15T00:46:29;100278.50;;;7.85;100.00
17525;BME280;40431;52.198;9.902;2022-11-15T00:48:57;100273.59;;;7.94;100.00
17525;BME280;40431;52.198;9.902;2022-11-15T00:51:26;100274.28;;;8.13;100.00
17525;BME280;40431;52.198;9.902;2022-11-15T00:53:54;100277.44;;;8.22;100.00
17525;BME280;40431;52.198;9.902;2022-11-15T00:56:23;100274.84;;;8.36;100.00
17525;BME280;40431;52.198;9.902;2022-11-15T00:58:53;100266.09;;;8.48;100.00
17525;BME280;40431;52.198;9.902;2022-11-15T01:01:21;100257.06;;;8.64;100.00
17525;BME280;40431;52.198;9.902;2022-11-15T01:03:49;100257.59;;;8.71;100.00
17525;BME280;40431;52.198;9.902;2022-11-15T01:06:19;100256.19;;;8.79;100.00
17525;BME280;40431;52.198;9.902;2022-11-15T01:08:50;100254.97;;;8.85;100.00
17525;BME280;40431;52.198;9.902;2022-11-15T01:11:19;100251.63;;;8.96;100.00
17525;BME280;40431;52.198;9.902;2022-11-15T01:13:47;100246.72;;;9.02;100.00
17525;BME280;40431;52.198;9.902;2022-11-15T01:16:17;100242.19;;;9.03;100.00
17525;BME280;40431;52.198;9.902;2022-11-15T01:18:45;100233.63;;;9.11;100.00
17525;BME280;40431;52.198;9.902;2022-11-15T01:21:15;100231.31;;;9.19;100.00
17525;BME280;40431;52.198;9.902;2022-11-15T01:23:44;100230.88;;;9.27;100.00
17525;BME280;40431;52.198;9.902;2022-11-15T01:26:18;100217.84;;;9.33;100.00
17525;BME280;40431;52.198;9.902;2022-11-15T01:28:46;100218.50;;;9.37;100.00
17525;BME280;40431;52.198;9.902;2022-11-15T01:31:17;100207.50;;;9.40;100.00
17525;BME280;40431;52.198;9.902;2022-11-15T01:33:46;100207.09;;;9.46;100.00
17525;BME280;40431;52.198;9.902;2022-11-15T01:36:16;100206.03;;;9.49;100.00
17525;BME280;40431;52.198;9.902;2022-11-15T01:38:47;100199.41;;;9.55;100.00
17525;BME280;40431;52.198;9.902;2022-11-15T01:41:23;100206.34;;;9.59;100.00
17525;BME280;40431;52.198;9.902;2022-11-15T01:43:54;100193.38;;;9.64;100.00
17525;BME280;40431;52.198;9.902;2022-11-15T01:46:28;100195.13;;;9.65;100.00
17525;BME280;40431;52.198;9.902;2022-11-15T01:49:00;100197.72;;;9.66;100.00
17525;BME280;40431;52.198;9.902;2022-11-15T01:51:30;100199.97;;;9.74;100.00
17525;BME280;40431;52.198;9.902;2022-11-15T01:54:03;100195.72;;;9.84;100.00
17525;BME280;40431;52.198;9.902;2022-11-15T01:56:36;100197.25;;;9.89;100.00
17525;BME280;40431;52.198;9.902;2022-11-15T01:59:07;100201.22;;;9.97;100.00
17525;BME280;40431;52.198;9.902;2022-11-15T02:01:40;100195.59;;;10.00;100.00
17525;BME280;40431;52.198;9.902;2022-11-15T02:04:12;100189.31;;;10.00;100.00
17525;BME280;40431;52.198;9.902;2022-11-15T02:06:41;100191.59;;;10.06;100.00
17525;BME280;40431;52.198;9.902;2022-11-15T02:09:10;100192.19;;;10.11;100.00
17525;BME280;40431;52.198;9.902;2022-11-15T02:11:44;100193.13;;;10.25;100.00
17525;BME280;40431;52.198;9.902;2022-11-15T02:14:13;100180.13;;;10.30;100.00
17525;BME280;40431;52.198;9.902;2022-11-15T02:16:51;100178.22;;;10.32;100.00
17525;BME280;40431;52.198;9.902;2022-11-15T02:19:49;100172.78;;;10.32;100.00
17525;BME280;40431;52.198;9.902;2022-11-15T02:22:29;100165.25;;;10.37;100.00
17525;BME280;40431;52.198;9.902;2022-11-15T02:31:00;100161.72;;;10.49;100.00
17525;BME280;40431;52.198;9.902;2022-11-15T02:33:36;100157.94;;;10.52;100.00
17525;BME280;40431;52.198;9.902;2022-11-15T02:36:11;100168.09;;;10.48;100.00
17525;BME280;40431;52.198;9.902;2022-11-15T02:38:43;100162.06;;;10.58;100.00
17525;BME280;40431;52.198;9.902;2022-11-15T02:41:16;100158.63;;;10.56;100.00
17525;BME280;40431;52.198;9.902;2022-11-15T02:43:48;100154.72;;;10.60;100.00
17525;BME280;40431;52.198;9.902;2022-11-15T02:46:28;100163.38;;;10.65;100.00
17525;BME280;40431;52.198;9.902;2022-11-15T02:49:11;100164.94;;;10.69;100.00
17525;BME280;40431;52.198;9.902;2022-11-15T02:51:41;100158.53;;;10.70;100.00
17525;BME280;40431;52.198;9.902;2022-11-15T02:54:12;100156.81;;;10.69;100.00
17525;BME280;40431;52.198;9.902;2022-11-15T02:56:43;100157.09;;;10.64;100.00
17525;BME280;40431;52.198;9.902;2022-11-15T02:59:28;100149.94;;;10.63;100.00
17525;BME280;40431;52.198;9.902;2022-11-15T03:02:13;100158.19;;;10.62;100.00
17525;BME280;40431;52.198;9.902;2022-11-15T03:04:50;100152.88;;;10.60;100.00
17525;BME280;40431;52.198;9.902;2022-11-15T03:07:25;100146.78;;;10.57;100.00
17525;BME280;40431;52.198;9.902;2022-11-15T03:10:05;100151.44;;;10.55;100.00
17525;BME280;40431;52.198;9.902;2022-11-15T03:12:40;100153.69;;;10.48;100.00
17525;BME280;40431;52.198;9.902;2022-11-15T03:15:20;100153.81;;;10.46;100.00
17525;BME280;40431;52.198;9.902;2022-11-15T03:17:55;100165.72;;;10.44;100.00
17525;BME280;40431;52.198;9.902;2022-11-15T03:20:24;100158.09;;;10.36;100.00
17525;BME280;40431;52.198;9.902;2022-11-15T03:22:58;100156.91;;;10.40;100.00
17525;BME280;40431;52.198;9.902;2022-11-15T03:25:38;100155.28;;;10.38;100.00
17525;BME280;40431;52.198;9.902;2022-11-15T03:28:12;100151.19;;;10.45;100.00
17525;BME280;40431;52.198;9.902;2022-11-15T03:30:42;100148.72;;;10.55;100.00
17525;BME280;40431;52.198;9.902;2022-11-15T03:33:11;100147.78;;;10.56;100.00
17525;BME280;40431;52.198;9.902;2022-11-15T03:35:40;100151.00;;;10.61;100.00
17525;BME280;40431;52.198;9.902;2022-11-15T03:38:14;100155.91;;;10.56;100.00
17525;BME280;40431;52.198;9.902;2022-11-15T03:40:47;100155.13;;;10.53;100.00
17525;BME280;40431;52.198;9.902;2022-11-15T03:43:22;100150.66;;;10.52;100.00
17525;BME280;40431;52.198;9.902;2022-11-15T03:45:53;100155.34;;;10.50;100.00
17525;BME280;40431;52.198;9.902;2022-11-15T03:48:25;100165.41;;;10.48;100.00
17525;BME280;40431;52.198;9.902;2022-11-15T03:50:53;100160.94;;;10.47;100.00
17525;BME280;40431;52.198;9.902;2022-11-15T03:53:20;100167.34;;;10.46;100.00
17525;BME280;40431;52.198;9.902;2022-11-15T03:55:47;100165.06;;;10.40;100.00
17525;BME280;40431;52.198;9.902;2022-11-15T03:58:13;100159.84;;;10.37;100.00
17525;BME280;40431;52.198;9.902;2022-11-15T04:00:40;100161.06;;;10.31;100.00
17525;BME280;40431;52.198;9.902;2022-11-15T04:03:07;100154.00;;;10.29;100.00
17525;BME280;40431;52.198;9.902;2022-11-15T04:05:34;100151.50;;;10.26;100.00
17525;BME280;40431;52.198;9.902;2022-11-15T04:08:01;100149.19;;;10.19;100.00
17525;BME280;40431;52.198;9.902;2022-11-15T04:10:28;100149.50;;;10.15;100.00
17525;BME280;40431;52.198;9.902;2022-11-15T04:12:54;100145.66;;;10.05;100.00
17525;BME280;40431;52.198;9.902;2022-11-15T04:15:23;100142.50;;;9.98;100.00
17525;BME280;40431;52.198;9.902;2022-11-15T04:17:51;100150.94;;;9.93;100.00
17525;BME280;40431;52.198;9.902;2022-11-15T04:20:20;100154.31;;;9.82;100.00
17525;BME280;40431;52.198;9.902;2022-11-15T04:23:07;100152.88;;;9.77;100.00
17525;BME280;40431;52.198;9.902;2022-11-15T04:25:54;100157.06;;;9.68;100.00
17525;BME280;40431;52.198;9.902;2022-11-15T04:28:21;100162.63;;;9.65;100.00
17525;BME280;40431;52.198;9.902;2022-11-15T04:30:48;100162.16;;;9.58;100.00
17525;BME280;40431;52.198;9.902;2022-11-15T04:33:15;100168.47;;;9.59;100.00
17525;BME280;40431;52.198;9.902;2022-11-15T04:35:41;100170.47;;;9.55;100.00
17525;BME280;40431;52.198;9.902;2022-11-15T04:38:10;100161.69;;;9.51;100.00
17525;BME280;40431;52.198;9.902;2022-11-15T04:40:37;100162.09;;;9.45;100.00
17525;BME280;40431;52.198;9.902;2022-11-15T04:43:04;100163.69;;;9.48;100.00
17525;BME280;40431;52.198;9.902;2022-11-15T04:45:31;100154.44;;;9.38;100.00
17525;BME280;40431;52.198;9.902;2022-11-15T04:47:57;100153.75;;;9.34;100.00
17525;BME280;40431;52.198;9.902;2022-11-15T04:50:24;100148.72;;;9.28;100.00
17525;BME280;40431;52.198;9.902;2022-11-15T04:52:52;100147.38;;;9.21;100.00
17525;BME280;40431;52.198;9.902;2022-11-15T04:55:20;100154.31;;;9.25;100.00
17525;BME280;40431;52.198;9.902;2022-11-15T04:57:47;100152.41;;;9.27;100.00
17525;BME280;40431;52.198;9.902;2022-11-15T05:00:15;100154.31;;;9.25;100.00
17525;BME280;40431;52.198;9.902;2022-11-15T05:02:42;100146.22;;;9.25;100.00
17525;BME280;40431;52.198;9.902;2022-11-15T05:05:26;100150.47;;;9.29;100.00
17525;BME280;40431;52.198;9.902;2022-11-15T05:07:53;100149.13;;;9.22;100.00
17525;BME280;40431;52.198;9.902;2022-11-15T05:10:21;100145.53;;;9.21;100.00
17525;BME280;40431;52.198;9.902;2022-11-15T05:12:48;100160.09;;;9.18;100.00
17525;BME280;40431;52.198;9.902;2022-11-15T05:15:14;100145.81;;;9.16;100.00
17525;BME280;40431;52.198;9.902;2022-11-15T05:17:41;100152.97;;;9.17;100.00
17525;BME280;40431;52.198;9.902;2022-11-15T05:20:08;100158.56;;;9.14;100.00
17525;BME280;40431;52.198;9.902;2022-11-15T05:22:35;100157.41;;;9.18;100.00
17525;BME280;40431;52.198;9.902;2022-11-15T05:25:02;100156.53;;;9.18;100.00
17525;BME280;40431;52.198;9.902;2022-11-15T05:27:30;100152.97;;;9.17;100.00
17525;BME280;40431;52.198;9.902;2022-11-15T05:29:57;100151.22;;;9.16;100.00
17525;BME280;40431;52.198;9.902;2022-11-15T05:32:23;100150.44;;;9.14;100.00
17525;BME280;40431;52.198;9.902;2022-11-15T05:34:50;100143.38;;;9.12;100.00
17525;BME280;40431;52.198;9.902;2022-11-15T05:37:17;100149.78;;;9.11;100.00
17525;BME280;40431;52.198;9.902;2022-11-15T05:39:44;100147.25;;;9.08;100.00
17525;BME280;40431;52.198;9.902;2022-11-15T05:42:12;100155.75;;;9.01;100.00
17525;BME280;40431;52.198;9.902;2022-11-15T05:44:44;100144.34;;;8.96;100.00
17525;BME280;40431;52.198;9.902;2022-11-15T05:47:14;100147.31;;;8.92;100.00
17525;BME280;40431;52.198;9.902;2022-11-15T05:49:44;100145.56;;;8.91;100.00
17525;BME280;40431;52.198;9.902;2022-11-15T05:52:13;100150.56;;;8.82;100.00
17525;BME280;40431;52.198;9.902;2022-11-15T05:54:41;100154.44;;;8.78;100.00
17525;BME280;40431;52.198;9.902;2022-11-15T05:57:08;100155.38;;;8.77;100.00
17525;BME280;40431;52.198;9.902;2022-11-15T05:59:35;100153.81;;;8.73;100.00
17525;BME280;40431;52.198;9.902;2022-11-15T06:02:03;100155.78;;;8.71;100.00
17525;BME280;40431;52.198;9.902;2022-11-15T06:04:29;100154.22;;;8.67;100.00
17525;BME280;40431;52.198;9.902;2022-11-15T06:06:57;100148.97;;;8.64;100.00
17525;BME280;40431;52.198;9.902;2022-11-15T06:09:24;100147.06;;;8.66;100.00
17525;BME280;40431;52.198;9.902;2022-11-15T06:11:51;100145.13;;;8.68;100.00
17525;BME280;40431;52.198;9.902;2022-11-15T06:14:17;100147.66;;;8.71;100.00
17525;BME280;40431;52.198;9.902;2022-11-15T06:16:44;100152.47;;;8.66;100.00
17525;BME280;40431;52.198;9.902;2022-11-15T06:19:12;100153.81;;;8.73;100.00
17525;BME280;40431;52.198;9.902;2022-11-15T06:21:38;100164.63;;;8.73;100.00
17525;BME280;40431;52.198;9.902;2022-11-15T06:24:05;100167.25;;;8.75;100.00
17525;BME280;40431;52.198;9.902;2022-11-15T06:26:32;100177.09;;;8.76;100.00
17525;BME280;40431;52.198;9.902;2022-11-15T06:28:59;100179.81;;;8.76;100.00
17525;BME280;40431;52.198;9.902;2022-11-15T06:31:25;100178.84;;;8.77;100.00
17525;BME280;40431;52.198;9.902;2022-11-15T06:33:52;100178.75;;;8.78;100.00
17525;BME280;40431;52.198;9.902;2022-11-15T06:36:20;100177.69;;;8.81;100.00
17525;BME280;40431;52.198;9.902;2022-11-15T06:38:46;100175.09;;;8.79;100.00
17525;BME280;40431;52.198;9.902;2022-11-15T06:41:13;100177.19;;;8.74;100.00
17525;BME280;40431;52.198;9.902;2022-11-15T06:43:40;100184.50;;;8.72;100.00
17525;BME280;40431;52.198;9.902;2022-11-15T06:46:07;100185.50;;;8.71;100.00
17525;BME280;40431;52.198;9.902;2022-11-15T06:48:34;100184.72;;;8.69;100.00
17525;BME280;40431;52.198;9.902;2022-11-15T06:51:02;100180.25;;;8.68;100.00
17525;BME280;40431;52.198;9.902;2022-11-15T06:53:31;100182.78;;;8.71;100.00
17525;BME280;40431;52.198;9.902;2022-11-15T06:55:59;100180.84;;;8.73;100.00
17525;BME280;40431;52.198;9.902;2022-11-15T06:58:30;100182.69;;;8.73;100.00
17525;BME280;40431;52.198;9.902;2022-11-15T07:01:02;100189.75;;;8.75;100.00
17525;BME280;40431;52.198;9.902;2022-11-15T07:03:34;100196.91;;;8.76;100.00
17525;BME280;40431;52.198;9.902;2022-11-15T07:06:05;100195.88;;;8.79;100.00
17525;BME280;40431;52.198;9.902;2022-11-15T07:08:35;100196.53;;;8.82;100.00
17525;BME280;40431;52.198;9.902;2022-11-15T07:11:05;100198.28;;;8.83;100.00
17525;BME280;40431;52.198;9.902;2022-11-15T07:13:34;100198.47;;;8.80;100.00
17525;BME280;40431;52.198;9.902;2022-11-15T07:16:07;100193.06;;;8.80;100.00
17525;BME280;40431;52.198;9.902;2022-11-15T07:18:36;100200.19;;;8.81;100.00
17525;BME280;40431;52.198;9.902;2022-11-15T07:21:06;100187.66;;;8.80;100.00
17525;BME280;40431;52.198;9.902;2022-11-15T07:23:36;100183.97;;;8.81;100.00
17525;BME280;40431;52.198;9.902;2022-11-15T07:26:05;100195.66;;;8.82;100.00
17525;BME280;40431;52.198;9.902;2022-11-15T07:28:34;100199.13;;;8.84;100.00
17525;BME280;40431;52.198;9.902;2022-11-15T07:31:02;100202.81;;;8.83;100.00
17525;BME280;40431;52.198;9.902;2022-11-15T07:33:31;100192.88;;;8.83;100.00
17525;BME280;40431;52.198;9.902;2022-11-15T07:35:59;100183.91;;;8.83;100.00
17525;BME280;40431;52.198;9.902;2022-11-15T07:38:28;100192.78;;;8.85;100.00
17525;BME280;40431;52.198;9.902;2022-11-15T07:41:00;100192.41;;;8.91;100.00
17525;BME280;40431;52.198;9.902;2022-11-15T07:43:28;100199.47;;;8.94;100.00
17525;BME280;40431;52.198;9.902;2022-11-15T07:45:59;100190.56;;;8.92;100.00
17525;BME280;40431;52.198;9.902;2022-11-15T07:48:31;100192.63;;;9.02;100.00
17525;BME280;40431;52.198;9.902;2022-11-15T07:51:04;100189.84;;;9.04;100.00
17525;BME280;40431;52.198;9.902;2022-11-15T07:53:32;100197.56;;;9.10;100.00
17525;BME280;40431;52.198;9.902;2022-11-15T07:56:08;100193.91;;;9.11;100.00
17525;BME280;40431;52.198;9.902;2022-11-15T07:58:49;100189.09;;;9.16;100.00
17525;BME280;40431;52.198;9.902;2022-11-15T08:01:16;100191.41;;;9.23;100.00
17525;BME280;40431;52.198;9.902;2022-11-15T08:03:44;100189.50;;;9.25;100.00
17525;BME280;40431;52.198;9.902;2022-11-15T08:06:12;100186.59;;;9.28;100.00
17525;BME280;40431;52.198;9.902;2022-11-15T08:08:39;100183.88;;;9.28;100.00
17525;BME280;40431;52.198;9.902;2022-11-15T08:11:08;100182.94;;;9.29;100.00
17525;BME280;40431;52.198;9.902;2022-11-15T08:13:36;100176.56;;;9.30;100.00
17525;BME280;40431;52.198;9.902;2022-11-15T08:16:04;100176.47;;;9.31;100.00
17525;BME280;40431;52.198;9.902;2022-11-15T08:18:32;100177.91;;;9.37;100.00
17525;BME280;40431;52.198;9.902;2022-11-15T08:21:00;100188.56;;;9.40;100.00
17525;BME280;40431;52.198;9.902;2022-11-15T08:23:31;100178.00;;;9.35;100.00
17525;BME280;40431;52.198;9.902;2022-11-15T08:26:00;100184.59;;;9.46;100.00
17525;BME280;40431;52.198;9.902;2022-11-15T08:28:30;100183.34;;;9.51;100.00
17525;BME280;40431;52.198;9.902;2022-11-15T08:30:58;100187.09;;;9.63;100.00
17525;BME280;40431;52.198;9.902;2022-11-15T08:33:26;100187.59;;;9.70;100.00
17525;BME280;40431;52.198;9.902;2022-11-15T08:35:56;100194.16;;;9.80;100.00
17525;BME280;40431;52.198;9.902;2022-11-15T08:38:24;100184.06;;;9.97;100.00
17525;BME280;40431;52.198;9.902;2022-11-15T08:41:00;100193.56;;;10.04;100.00
17525;BME280;40431;52.198;9.902;2022-11-15T08:43:29;100184.72;;;10.15;100.00
17525;BME280;40431;52.198;9.902;2022-11-15T08:45:57;100182.97;;;10.28;100.00
17525;BME280;40431;52.198;9.902;2022-11-15T08:48:25;100180.63;;;10.36;100.00
17525;BME280;40431;52.198;9.902;2022-11-15T08:50:53;100177.53;;;10.43;100.00
17525;BME280;40431;52.198;9.902;2022-11-15T08:53:21;100176.13;;;10.50;100.00
17525;BME280;40431;52.198;9.902;2022-11-15T08:55:49;100167.50;;;10.58;100.00
17525;BME280;40431;52.198;9.902;2022-11-15T08:58:17;100166.00;;;10.66;100.00
17525;BME280;40431;52.198;9.902;2022-11-15T09:00:46;100163.66;;;10.75;100.00
17525;BME280;40431;52.198;9.902;2022-11-15T09:03:13;100168.63;;;10.81;100.00
17525;BME280;40431;52.198;9.902;2022-11-15T09:05:41;100159.00;;;10.90;100.00
17525;BME280;40431;52.198;9.902;2022-11-15T09:08:09;100161.50;;;10.93;100.00
17525;BME280;40431;52.198;9.902;2022-11-15T09:10:38;100163.47;;;10.91;100.00
17525;BME280;40431;52.198;9.902;2022-11-15T09:13:07;100165.94;;;10.94;100.00
17525;BME280;40431;52.198;9.902;2022-11-15T09:15:39;100173.91;;;10.97;100.00
17525;BME280;40431;52.198;9.902;2022-11-15T09:18:09;100182.69;;;11.00;100.00
17525;BME280;40431;52.198;9.902;2022-11-15T09:20:37;100178.66;;;11.06;100.00
17525;BME280;40431;52.198;9.902;2022-11-15T09:23:05;100181.75;;;11.14;100.00
17525;BME280;40431;52.198;9.902;2022-11-15T09:25:33;100180.75;;;11.15;100.00
17525;BME280;40431;52.198;9.902;2022-11-15T09:28:06;100179.34;;;11.23;100.00
17525;BME280;40431;52.198;9.902;2022-11-15T09:30:34;100174.78;;;11.23;100.00
17525;BME280;40431;52.198;9.902;2022-11-15T09:33:08;100179.00;;;11.27;100.00
17525;BME280;40431;52.198;9.902;2022-11-15T09:35:36;100174.13;;;11.32;99.84
17525;BME280;40431;52.198;9.902;2022-11-15T09:38:04;100160.44;;;11.34;99.35
17525;BME280;40431;52.198;9.902;2022-11-15T09:40:32;100160.25;;;11.37;99.27
17525;BME280;40431;52.198;9.902;2022-11-15T09:43:17;100168.94;;;11.42;98.61
17525;BME280;40431;52.198;9.902;2022-11-15T09:46:02;100162.50;;;11.43;99.02
17525;BME280;40431;52.198;9.902;2022-11-15T09:51:30;100164.56;;;11.52;98.45
17525;BME280;40431;52.198;9.902;2022-11-15T09:54:11;100161.13;;;11.50;98.08
17525;BME280;40431;52.198;9.902;2022-11-15T09:56:43;100166.31;;;11.53;97.28
17525;BME280;40431;52.198;9.902;2022-11-15T09:59:29;100160.47;;;11.60;96.82
17525;BME280;40431;52.198;9.902;2022-11-15T10:02:12;100163.50;;;11.68;96.82
17525;BME280;40431;52.198;9.902;2022-11-15T10:04:44;100167.59;;;11.74;96.20
17525;BME280;40431;52.198;9.902;2022-11-15T10:07:16;100162.06;;;11.75;96.05
17525;BME280;40431;52.198;9.902;2022-11-15T10:09:53;100162.81;;;11.77;95.89
17525;BME280;40431;52.198;9.902;2022-11-15T10:12:27;100152.38;;;11.84;95.31
17525;BME280;40431;52.198;9.902;2022-11-15T10:14:58;100154.53;;;11.92;94.38
17525;BME280;40431;52.198;9.902;2022-11-15T10:17:52;100150.66;;;11.96;93.63
17525;BME280;40431;52.198;9.902;2022-11-15T10:20:27;100146.72;;;12.00;93.25
17525;BME280;40431;52.198;9.902;2022-11-15T10:22:58;100138.81;;;11.97;93.15
17525;BME280;40431;52.198;9.902;2022-11-15T10:25:30;100138.34;;;12.03;93.40
17525;BME280;40431;52.198;9.902;2022-11-15T10:28:00;100144.53;;;12.05;93.49
17525;BME280;40431;52.198;9.902;2022-11-15T10:30:34;100142.13;;;12.13;93.25
17525;BME280;40431;52.198;9.902;2022-11-15T10:33:16;100142.88;;;12.15;93.42
17525;BME280;40431;52.198;9.902;2022-11-15T10:35:46;100133.84;;;12.15;92.40
17525;BME280;40431;52.198;9.902;2022-11-15T10:38:13;100137.66;;;12.12;92.75
17525;BME280;40431;52.198;9.902;2022-11-15T10:40:42;100136.22;;;12.19;92.50
17525;BME280;40431;52.198;9.902;2022-11-15T10:43:16;100121.66;;;12.21;92.84
17525;BME280;40431;52.198;9.902;2022-11-15T10:45:45;100133.81;;;12.28;92.71
17525;BME280;40431;52.198;9.902;2022-11-15T10:48:25;100120.09;;;12.29;92.10
17525;BME280;40431;52.198;9.902;2022-11-15T10:50:56;100119.84;;;12.32;91.85
17525;BME280;40431;52.198;9.902;2022-11-15T10:53:28;100116.03;;;12.35;91.91
17525;BME280;40431;52.198;9.902;2022-11-15T10:56:12;100113.09;;;12.38;91.80
17525;BME280;40431;52.198;9.902;2022-11-15T10:58:49;100103.53;;;12.32;91.84
17525;BME280;40431;52.198;9.902;2022-11-15T11:01:24;100109.75;;;12.34;92.19
17525;BME280;40431;52.198;9.902;2022-11-15T11:04:02;100108.41;;;12.40;91.32
17525;BME280;40431;52.198;9.902;2022-11-15T11:06:46;100101.97;;;12.41;91.81
17525;BME280;40431;52.198;9.902;2022-11-15T11:09:23;100101.13;;;12.41;91.58
17525;BME280;40431;52.198;9.902;2022-11-15T11:11:56;100093.81;;;12.41;91.85
17525;BME280;40431;52.198;9.902;2022-11-15T11:14:26;100096.78;;;12.38;92.70
17525;BME280;40431;52.198;9.902;2022-11-15T11:17:03;100098.53;;;12.39;93.02
17525;BME280;40431;52.198;9.902;2022-11-15T11:19:46;100086.78;;;12.39;93.46
17525;BME280;40431;52.198;9.902;2022-11-15T11:22:22;100083.94;;;12.40;92.78
17525;BME280;40431;52.198;9.902;2022-11-15T11:25:00;100076.78;;;12.39;92.50
17525;BME280;40431;52.198;9.902;2022-11-15T11:27:43;100078.72;;;12.37;92.55
17525;BME280;40431;52.198;9.902;2022-11-15T11:30:16;100075.66;;;12.42;92.53
17525;BME280;40431;52.198;9.902;2022-11-15T11:32:55;100081.97;;;12.42;92.23
17525;BME280;40431;52.198;9.902;2022-11-15T11:35:28;100081.00;;;12.43;92.20
17525;BME280;40431;52.198;9.902;2022-11-15T11:38:09;100080.22;;;12.41;92.00
17525;BME280;40431;52.198;9.902;2022-11-15T11:40:44;100080.22;;;12.41;92.32
17525;BME280;40431;52.198;9.902;2022-11-15T11:43:27;100074.28;;;12.36;92.89
17525;BME280;40431;52.198;9.902;2022-11-15T11:46:09;100076.00;;;12.37;93.06
17525;BME280;40431;52.198;9.902;2022-11-15T11:48:42;100077.28;;;12.44;92.34
17525;BME280;40431;52.198;9.902;2022-11-15T11:51:16;100074.06;;;12.39;91.84
17525;BME280;40431;52.198;9.902;2022-11-15T11:53:54;100070.34;;;12.40;91.81
17525;BME280;40431;52.198;9.902;2022-11-15T11:56:27;100075.56;;;12.43;91.70
17525;BME280;40431;52.198;9.902;2022-11-15T11:59:02;100071.94;;;12.43;91.59
17525;BME280;40431;52.198;9.902;2022-11-15T12:01:35;100072.19;;;12.40;91.18
17525;BME280;40431;52.198;9.902;2022-11-15T12:04:09;100068.72;;;12.38;91.32
17525;BME280;40431;52.198;9.902;2022-11-15T12:06:44;100064.16;;;12.38;91.91
17525;BME280;40431;52.198;9.902;2022-11-15T12:09:17;100056.63;;;12.42;91.92
17525;BME280;40431;52.198;9.902;2022-11-15T12:11:54;100052.19;;;12.41;91.85
17525;BME280;40431;52.198;9.902;2022-11-15T12:14:32;100036.00;;;12.39;91.64
17525;BME280;40431;52.198;9.902;2022-11-15T12:17:04;100041.06;;;12.44;91.83
17525;BME280;40431;52.198;9.902;2022-11-15T12:19:31;100044.41;;;12.47;91.82
17525;BME280;40431;52.198;9.902;2022-11-15T12:22:02;100045.16;;;12.49;91.48
17525;BME280;40431;52.198;9.902;2022-11-15T12:24:37;100050.38;;;12.52;91.04
17525;BME280;40431;52.198;9.902;2022-11-15T12:27:14;100036.25;;;12.47;91.47
17525;BME280;40431;52.198;9.902;2022-11-15T12:29:46;100037.75;;;12.51;91.73
17525;BME280;40431;52.198;9.902;2022-11-15T12:32:25;100029.00;;;12.59;90.57
17525;BME280;40431;52.198;9.902;2022-11-15T12:34:56;100029.09;;;12.58;90.45
17525;BME280;40431;52.198;9.902;2022-11-15T12:37:52;100028.25;;;12.57;91.10
17525;BME280;40431;52.198;9.902;2022-11-15T12:41:12;100026.16;;;12.61;91.05
17525;BME280;40431;52.198;9.902;2022-11-15T12:43:42;100027.16;;;12.60;91.28
17525;BME280;40431;52.198;9.902;2022-11-15T12:46:13;100025.91;;;12.64;91.31
17525;BME280;40431;52.198;9.902;2022-11-15T12:48:52;100021.09;;;12.67;91.48
17525;BME280;40431;52.198;9.902;2022-11-15T12:51:21;100010.97;;;12.69;90.42
17525;BME280;40431;52.198;9.902;2022-11-15T12:53:50;100011.34;;;12.65;90.64
17525;BME280;40431;52.198;9.902;2022-11-15T12:56:24;100004.78;;;12.67;90.52
17525;BME280;40431;52.198;9.902;2022-11-15T12:58:56;100002.78;;;12.69;90.22
17525;BME280;40431;52.198;9.902;2022-11-15T13:01:55;99993.03;;;12.67;90.40
17525;BME280;40431;52.198;9.902;2022-11-15T13:04:28;99996.50;;;12.69;90.35
17525;BME280;40431;52.198;9.902;2022-11-15T13:07:00;99986.38;;;12.71;90.35
17525;BME280;40431;52.198;9.902;2022-11-15T13:09:51;99998.00;;;12.73;90.43
17525;BME280;40431;52.198;9.902;2022-11-15T13:12:52;99982.53;;;12.74;90.31
17525;BME280;40431;52.198;9.902;2022-11-15T13:18:38;99986.00;;;12.76;90.16
17525;BME280;40431;52.198;9.902;2022-11-15T13:21:23;99968.31;;;12.81;89.08
17525;BME280;40431;52.198;9.902;2022-11-15T13:24:17;99972.03;;;12.80;89.23